Time;durP1;ratioP1;P1;durP2;ratioP2;P2;SDS_P1;SDS_P2;PMS_P1;PMS_P2;Temp;Humidity;BMP_temperature;BMP_pressure;BME280_temperature;BME280_humidity;BME280_pressure;Samples;Min_cycle;Max_cycle;Signal;HPM_P1;HPM_P2
2022/12/11 00:09:00;;;;;;;74.10;20.27;;;-1.40;99.90;;;;;;6213659;22;20023;-89
2022/12/11 00:15:13;;;;;;;;;;;;;;;;;;;;;
2022/12/11 00:22:43;;;;;;;69.63;19.47;;;-2.30;99.90;;;;;;6218483;23;20035;-90
2022/12/11 00:29:21;;;;;;;68.80;20.13;;;-0.30;99.90;;;;;;6180390;23;20043;-90
2022/12/11 00:32:46;;;;;;;;;;;;;;;;;;;;;
2022/12/11 00:42:21;;;;;;;;;;;;;;;;;;;;;
2022/12/11 00:48:18;;;;;;;;;;;;;;;;;;;;;
2022/12/11 01:00:38;;;;;;;67.67;19.00;;;-1.20;99.90;;;;;;6245630;22;20024;-90
2022/12/11 01:04:03;;;;;;;59.17;17.60;;;-1.70;99.90;;;;;;6248523;22;20047;-90
2022/12/11 01:07:03;;;;;;;61.13;17.25;;;-0.10;99.90;;;;;;6153617;23;20027;-91
2022/12/11 01:13:38;;;;;;;;;;;;;;;;;;;;;
2022/12/11 01:20:20;;;;;;;59.97;16.70;;;-1.20;99.90;;;;;;6063973;23;20355;-91
2022/12/11 01:32:17;;;;;;;63.60;17.10;;;-1.10;99.90;;;;;;6094590;23;20027;-90
2022/12/11 01:39:48;;;;;;;;;;;;;;;;;;;;;
2022/12/11 01:42:28;;;;;;;54.97;17.13;;;-1.80;99.90;;;;;;6011287;23;20018;-90
2022/12/11 01:45:58;;;;;;;55.10;16.97;;;-0.90;99.90;;;;;;6094264;23;20026;-89
2022/12/11 01:51:54;;;;;;;64.67;17.23;;;-1.70;99.90;;;;;;6047388;23;20104;-90
2022/12/11 01:54:56;;;;;;;58.03;16.50;;;0.90;99.90;;;;;;6246262;23;20055;-90
2022/12/11 01:58:33;;;;;;;56.27;15.60;;;-0.50;99.90;;;;;;6134706;23;20016;-90
2022/12/11 02:01:42;;;;;;;52.83;16.10;;;-1.30;99.90;;;;;;6094124;23;20053;-90
2022/12/11 02:04:49;;;;;;;58.87;16.37;;;-0.70;99.90;;;;;;6153881;23;20327;-90
2022/12/11 02:11:54;;;;;;;55.20;15.47;;;-0.90;99.90;;;;;;6065601;23;20108;-90
2022/12/11 02:18:43;;;;;;;57.70;15.93;;;-0.40;99.90;;;;;;6041790;23;20034;-90
2022/12/11 02:25:40;;;;;;;50.83;15.73;;;-0.70;99.90;;;;;;6066741;23;20078;-90
2022/12/11 02:32:38;;;;;;;57.73;17.43;;;0.20;99.90;;;;;;6113526;23;20473;-90
2022/12/11 02:35:52;;;;;;;55.50;16.60;;;0.60;99.90;;;;;;6041598;23;20089;-90
2022/12/11 02:41:53;;;;;;;53.07;15.57;;;-0.70;99.90;;;;;;6050666;23;20027;-90
2022/12/11 02:58:34;;;;;;;60.70;16.33;;;0.30;99.90;;;;;;6241465;22;20070;-90
2022/12/11 03:01:08;;;;;;;55.47;16.03;;;-0.20;99.90;;;;;;6156873;23;20044;-90
2022/12/11 03:04:17;;;;;;;;;;;;;;;;;;;;;
2022/12/11 03:07:31;;;;;;;51.87;16.27;;;-0.70;99.90;;;;;;6067504;23;20022;-91
2022/12/11 03:10:17;;;;;;;53.40;16.70;;;1.10;99.90;;;;;;6061701;22;20090;-88
2022/12/11 03:17:21;;;;;;;61.30;16.53;;;0.10;99.90;;;;;;6244683;23;20348;-90
2022/12/11 03:20:30;;;;;;;;;;;;;;;;;;;;;
2022/12/11 03:24:09;;;;;;;59.00;17.47;;;-1.50;99.90;;;;;;6003748;23;20018;-90
2022/12/11 03:30:34;;;;;;;63.03;16.63;;;-0.80;99.90;;;;;;6218729;23;20028;-90
2022/12/11 03:33:26;;;;;;;60.70;16.97;;;0.00;99.90;;;;;;6188518;23;20023;-90
2022/12/11 03:39:28;;;;;;;64.20;17.40;;;-0.70;99.90;;;;;;6244425;23;20056;-90
2022/12/11 03:42:36;;;;;;;60.53;17.05;;;0.20;99.90;;;;;;6223187;23;20020;-91
2022/12/11 03:45:05;;;;;;;62.53;17.20;;;0.10;99.90;;;;;;6245933;23;20070;-90
2022/12/11 03:48:21;;;;;;;58.63;17.53;;;-0.60;99.90;;;;;;6184900;23;20023;-90
2022/12/11 03:51:09;;;;;;;63.30;17.37;;;-1.50;99.90;;;;;;6245201;23;20027;-90
2022/12/11 03:54:12;;;;;;;61.13;17.43;;;0.10;99.90;;;;;;6184515;23;20013;-90
2022/12/11 04:00:29;;;;;;;72.13;19.07;;;-0.60;99.90;;;;;;6093827;23;20459;-90
2022/12/11 04:03:19;;;;;;;71.73;19.50;;;-0.70;99.90;;;;;;6069968;23;20035;-90
2022/12/11 04:05:56;;;;;;;74.23;19.30;;;-0.10;99.90;;;;;;6063212;23;20018;-90
2022/12/11 04:08:22;;;;;;;71.23;18.93;;;0.10;99.90;;;;;;6094010;23;20022;-90
2022/12/11 04:24:13;;;;;;;63.37;18.47;;;-0.50;99.90;;;;;;6245375;23;20020;-90
2022/12/11 04:26:24;;;;;;;87.60;19.70;;;-0.70;99.90;;;;;;6245084;23;20027;-90
2022/12/11 04:28:58;;;;;;;77.33;19.00;;;-0.50;99.90;;;;;;6168069;23;20079;-90
2022/12/11 04:31:30;;;;;;;75.10;20.13;;;-0.50;99.90;;;;;;6245328;23;20068;-90
2022/12/11 04:34:01;;;;;;;72.70;19.37;;;-0.70;99.90;;;;;;6219101;23;20440;-88
2022/12/11 04:36:29;;;;;;;72.70;18.93;;;0.10;99.90;;;;;;6218812;23;20359;-89
2022/12/11 04:38:55;;;;;;;72.83;18.80;;;-0.40;99.90;;;;;;6218480;23;20199;-89
2022/12/11 04:41:53;;;;;;;72.63;19.30;;;-0.50;99.90;;;;;;6245133;23;20043;-90
2022/12/11 04:44:22;;;;;;;70.03;19.43;;;1.50;99.90;;;;;;6245071;23;20052;-89
2022/12/11 04:46:48;;;;;;;83.37;20.57;;;-0.50;99.90;;;;;;6244675;23;20035;-90
2022/12/11 04:49:34;;;;;;;79.13;19.53;;;0.00;99.90;;;;;;6246924;23;20016;-90
2022/12/11 04:51:59;;;;;;;81.40;21.47;;;-1.20;99.90;;;;;;6218950;23;20050;-90
2022/12/11 04:54:33;;;;;;;82.33;19.67;;;0.90;99.90;;;;;;6255537;23;20090;-89
2022/12/11 04:56:59;;;;;;;88.50;20.20;;;-0.60;99.90;;;;;;6227908;23;20016;-90
2022/12/11 04:59:28;;;;;;;75.33;20.90;;;-0.80;99.90;;;;;;6245426;23;20055;-90
2022/12/11 05:01:58;;;;;;;73.97;19.97;;;-0.40;99.90;;;;;;6224371;23;20052;-90
2022/12/11 05:04:39;;;;;;;81.70;21.07;;;-1.60;99.90;;;;;;6250129;23;20091;-90
2022/12/11 05:07:14;;;;;;;79.67;20.37;;;0.60;99.90;;;;;;6224145;23;20024;-89
2022/12/11 05:09:42;;;;;;;78.10;21.63;;;-0.50;99.90;;;;;;6247583;23;20012;-89
2022/12/11 05:12:09;;;;;;;75.07;21.40;;;-0.70;99.90;;;;;;6220679;23;20021;-90
2022/12/11 05:14:37;;;;;;;77.97;21.33;;;-1.10;99.90;;;;;;6225250;23;20027;-90
2022/12/11 05:17:03;;;;;;;74.70;19.90;;;0.70;99.90;;;;;;6223801;23;20023;-89
2022/12/11 05:19:29;;;;;;;80.70;20.83;;;-0.60;99.90;;;;;;6223641;23;20016;-90
2022/12/11 05:21:54;;;;;;;77.90;21.03;;;-0.20;99.90;;;;;;6249350;23;20022;-89
2022/12/11 05:24:23;;;;;;;72.77;20.47;;;-1.00;99.90;;;;;;6223125;23;20027;-89
2022/12/11 05:26:48;;;;;;;83.37;20.70;;;-0.90;99.90;;;;;;6250022;23;20016;-90
2022/12/11 05:29:14;;;;;;;80.30;20.57;;;-1.00;99.90;;;;;;6221025;23;20019;-89
2022/12/11 05:31:40;;;;;;;70.43;19.00;;;-0.40;99.90;;;;;;6222980;23;20008;-89
2022/12/11 05:34:06;;;;;;;87.93;20.77;;;-0.90;99.90;;;;;;6249908;23;20103;-90
2022/12/11 05:36:32;;;;;;;68.67;19.17;;;-0.10;99.90;;;;;;6224687;23;20095;-89
2022/12/11 05:39:00;;;;;;;64.23;18.67;;;-0.10;99.90;;;;;;6247277;23;20016;-89
2022/12/11 05:41:31;;;;;;;75.27;18.43;;;-0.10;99.90;;;;;;6249178;23;20066;-90
2022/12/11 05:43:57;;;;;;;70.80;20.00;;;0.10;99.90;;;;;;6253166;23;20020;-90
2022/12/11 05:46:25;;;;;;;75.87;19.70;;;-0.70;99.90;;;;;;6223963;23;20290;-89
2022/12/11 05:48:53;;;;;;;72.93;19.43;;;0.70;99.90;;;;;;6222685;23;20023;-90
2022/12/11 05:51:20;;;;;;;81.67;20.50;;;-0.50;99.90;;;;;;6222518;23;20027;-89
2022/12/11 05:53:50;;;;;;;76.37;20.77;;;-0.20;99.90;;;;;;6234310;22;20008;-90
2022/12/11 05:56:22;;;;;;;68.30;18.50;;;0.30;99.90;;;;;;6269564;22;20023;-89
2022/12/11 05:58:48;;;;;;;71.27;19.13;;;-0.10;99.90;;;;;;6253076;23;20040;-88
2022/12/11 06:01:20;;;;;;;68.03;20.07;;;0.00;99.90;;;;;;6226892;23;20054;-89
2022/12/11 06:03:54;;;;;;;64.30;18.43;;;0.30;99.90;;;;;;6250286;23;20012;-90
2022/12/11 06:06:20;;;;;;;69.03;19.13;;;-0.90;99.90;;;;;;6251403;23;20044;-89
2022/12/11 06:08:56;;;;;;;66.33;18.57;;;-0.30;99.90;;;;;;6221819;22;20016;-89
2022/12/11 06:11:34;;;;;;;90.23;19.77;;;-0.60;99.90;;;;;;6223749;23;20028;-89
2022/12/11 06:14:06;;;;;;;69.80;18.87;;;1.10;99.90;;;;;;6249700;23;20091;-89
2022/12/11 06:16:38;;;;;;;79.67;19.67;;;-0.70;99.90;;;;;;6249739;23;20044;-89
2022/12/11 06:19:03;;;;;;;67.83;19.07;;;0.00;99.90;;;;;;6246856;23;20027;-89
2022/12/11 06:21:35;;;;;;;70.03;19.57;;;0.20;99.90;;;;;;6221948;23;20047;-89
2022/12/11 06:24:02;;;;;;;72.93;20.07;;;-0.50;99.90;;;;;;6249132;23;20020;-89
2022/12/11 06:26:31;;;;;;;71.10;18.93;;;0.50;99.90;;;;;;6221519;23;20543;-89
2022/12/11 06:29:03;;;;;;;62.00;18.57;;;0.70;99.90;;;;;;6221527;23;20027;-89
2022/12/11 06:31:29;;;;;;;67.17;19.47;;;0.10;99.90;;;;;;6249405;23;20056;-89
2022/12/11 06:33:55;;;;;;;65.17;19.37;;;-0.40;99.90;;;;;;6219890;23;20360;-89
2022/12/11 06:36:23;;;;;;;70.67;19.90;;;-0.40;99.90;;;;;;6221292;23;20016;-89
2022/12/11 06:38:55;;;;;;;71.07;20.03;;;0.40;99.90;;;;;;6226782;23;20055;-90
2022/12/11 06:41:32;;;;;;;69.77;18.80;;;-0.30;99.90;;;;;;6252897;23;20020;-89
2022/12/11 06:44:01;;;;;;;73.27;20.37;;;0.00;99.90;;;;;;6242706;22;20016;-89
2022/12/11 06:46:31;;;;;;;71.07;20.50;;;-0.40;99.90;;;;;;6253807;23;20027;-89
2022/12/11 06:48:56;;;;;;;70.53;20.00;;;-0.50;99.90;;;;;;6251272;23;20012;-89
2022/12/11 06:51:22;;;;;;;65.77;19.10;;;-0.70;99.90;;;;;;6249680;23;20026;-88
2022/12/11 06:54:28;;;;;;;64.73;19.93;;;-0.10;99.90;;;;;;6221604;23;20062;-89
2022/12/11 06:56:59;;;;;;;78.93;20.47;;;0.40;99.90;;;;;;6248023;23;20012;-90
2022/12/11 06:59:30;;;;;;;73.00;19.20;;;-1.60;99.90;;;;;;6219506;23;20074;-89
2022/12/11 07:01:57;;;;;;;65.57;18.97;;;-0.90;99.90;;;;;;6222716;23;20009;-89
2022/12/11 07:04:26;;;;;;;71.17;21.23;;;-0.90;99.90;;;;;;6248716;23;20016;-89
2022/12/11 07:06:52;;;;;;;68.80;19.93;;;-0.50;99.90;;;;;;6250146;23;20024;-89
2022/12/11 07:09:18;;;;;;;67.17;19.63;;;-0.90;99.90;;;;;;6245503;23;20012;-90
2022/12/11 07:11:56;;;;;;;67.53;20.37;;;-0.60;99.90;;;;;;6247003;23;20356;-90
2022/12/11 07:14:26;;;;;;;75.53;20.00;;;-0.50;99.90;;;;;;6246340;23;20071;-88
2022/12/11 07:17:01;;;;;;;76.60;20.97;;;1.50;99.90;;;;;;6246562;23;20456;-90
2022/12/11 07:19:30;;;;;;;82.77;20.40;;;;;;;;;;6250160;23;20013;-89
2022/12/11 07:21:56;;;;;;;77.37;20.60;;;-0.60;99.90;;;;;;6251367;23;20020;-89
2022/12/11 07:24:28;;;;;;;79.53;19.60;;;-0.80;99.90;;;;;;6251523;23;20023;-90
2022/12/11 07:26:53;;;;;;;71.17;20.80;;;1.40;99.90;;;;;;6247634;23;20333;-89
2022/12/11 07:29:19;;;;;;;65.57;20.67;;;-1.00;99.90;;;;;;6245646;23;20015;-88
2022/12/11 07:31:50;;;;;;;77.60;21.27;;;-0.70;99.90;;;;;;6247727;23;20383;-89
2022/12/11 07:34:25;;;;;;;82.47;20.97;;;0.00;99.90;;;;;;6250200;23;20070;-88
2022/12/11 07:36:53;;;;;;;70.33;20.17;;;-0.70;99.90;;;;;;6219585;23;20020;-88
2022/12/11 07:42:41;;;;;;;68.60;20.93;;;-0.90;99.90;;;;;;6082125;23;20033;-87
2022/12/11 07:45:38;;;;;;;69.53;19.40;;;1.30;99.90;;;;;;6076242;23;20018;-89
2022/12/11 07:48:51;;;;;;;;;;;;;;;;;;;;;
2022/12/11 07:51:26;;;;;;;69.97;19.50;;;-0.90;99.90;;;;;;6128485;23;20030;-86
2022/12/11 07:54:15;;;;;;;68.97;20.03;;;-0.30;99.90;;;;;;6246201;22;20016;-88
2022/12/11 07:56:50;;;;;;;71.47;19.40;;;0.80;99.90;;;;;;6245803;23;20448;-87
2022/12/11 07:59:22;;;;;;;67.83;19.23;;;-0.80;99.90;;;;;;6212614;23;20517;-87
2022/12/11 08:02:03;;;;;;;66.40;19.43;;;1.10;99.90;;;;;;6216868;23;20439;-87
2022/12/11 08:04:29;;;;;;;62.53;18.03;;;-0.80;99.90;;;;;;6213254;23;20496;-86
2022/12/11 08:06:58;;;;;;;70.70;20.03;;;-0.30;99.90;;;;;;6190730;23;20012;-89
2022/12/11 08:09:47;;;;;;;65.43;19.57;;;-0.50;99.90;;;;;;6216032;23;20031;-87
2022/12/11 08:12:55;;;;;;;63.70;17.70;;;0.30;99.90;;;;;;6214326;23;20028;-88
2022/12/11 08:15:27;;;;;;;65.90;18.23;;;-0.40;99.90;;;;;;6215896;23;20456;-88
2022/12/11 08:18:29;;;;;;;64.97;19.03;;;0.50;99.90;;;;;;6193558;23;20016;-88
2022/12/11 08:20:54;;;;;;;72.77;19.87;;;0.30;99.90;;;;;;6200143;23;20337;-91
2022/12/11 08:23:29;;;;;;;66.30;19.67;;;-0.80;99.90;;;;;;6214857;23;20013;-89
2022/12/11 08:26:03;;;;;;;71.97;18.97;;;-0.20;99.90;;;;;;6215832;23;20013;-87
2022/12/11 08:28:35;;;;;;;;;;;-0.40;99.90;;;;;;6218495;23;20017;-87
2022/12/11 08:31:04;;;;;;;64.10;18.73;;;-1.00;99.90;;;;;;6214308;23;19992;-87
2022/12/11 08:33:37;;;;;;;72.00;19.43;;;0.10;99.90;;;;;;6214320;23;20020;-86
2022/12/11 08:36:20;;;;;;;65.97;18.55;;;-0.90;99.90;;;;;;6217725;23;20062;-86
2022/12/11 08:38:46;;;;;;;64.10;18.65;;;0.40;99.90;;;;;;6216516;23;20017;-87
2022/12/11 08:41:41;;;;;;;66.70;17.87;;;-0.30;99.90;;;;;;6217207;23;20459;-86
2022/12/11 08:44:24;;;;;;;66.63;19.23;;;-0.50;99.90;;;;;;6219005;23;20020;-89
2022/12/11 08:46:59;;;;;;;58.27;18.40;;;0.30;99.90;;;;;;6216655;23;20092;-86
2022/12/11 08:49:25;;;;;;;62.30;18.70;;;-0.40;99.90;;;;;;6236773;22;20028;-86
2022/12/11 08:51:51;;;;;;;57.07;19.13;;;-0.50;99.90;;;;;;6231044;22;20052;-87
2022/12/11 08:54:16;;;;;;;63.20;18.77;;;-0.30;99.90;;;;;;6218231;23;20104;-87
2022/12/11 08:56:45;;;;;;;58.20;18.77;;;-0.50;99.90;;;;;;6217058;23;20019;-86
2022/12/11 08:59:11;;;;;;;62.27;17.43;;;0.80;99.90;;;;;;6229642;23;20020;-87
2022/12/11 09:01:39;;;;;;;56.97;17.87;;;1.60;99.90;;;;;;6246225;23;20024;-87
2022/12/11 09:04:05;;;;;;;58.50;18.03;;;-0.40;99.90;;;;;;6247178;23;20016;-86
2022/12/11 09:06:32;;;;;;;63.00;18.40;;;0.40;99.90;;;;;;6246710;23;20019;-86
2022/12/11 09:08:59;;;;;;;54.70;18.17;;;-0.60;99.90;;;;;;6246529;23;20073;-85
2022/12/11 09:11:31;;;;;;;65.37;17.67;;;-0.40;99.90;;;;;;6246770;23;20012;-84
2022/12/11 09:13:57;;;;;;;61.03;18.03;;;1.30;99.90;;;;;;6219133;23;20344;-85
2022/12/11 09:16:25;;;;;;;69.07;18.43;;;-0.60;99.90;;;;;;6219048;23;20023;-85
2022/12/11 09:18:52;;;;;;;59.77;17.93;;;-0.50;99.90;;;;;;6220068;23;20313;-85
2022/12/11 09:21:20;;;;;;;72.07;19.53;;;-0.50;99.90;;;;;;6218714;23;20016;-85
2022/12/11 09:23:52;;;;;;;64.30;18.47;;;0.60;99.90;;;;;;6246995;23;20087;-85
2022/12/11 09:26:30;;;;;;;62.27;18.17;;;0.40;99.90;;;;;;6219439;23;20063;-85
2022/12/11 09:29:02;;;;;;;59.73;18.53;;;-0.20;99.90;;;;;;6219029;23;20103;-85
2022/12/11 09:31:33;;;;;;;60.47;17.77;;;1.70;99.90;;;;;;6219983;23;20008;-85
2022/12/11 09:34:06;;;;;;;73.80;19.57;;;-0.50;99.90;;;;;;6219841;23;20059;-85
2022/12/11 09:36:32;;;;;;;55.92;19.05;;;0.70;99.90;;;;;;6245669;23;20083;-86
2022/12/11 09:39:06;;;;;;;62.60;18.30;;;0.60;99.90;;;;;;6219889;23;20058;-87
2022/12/11 09:41:38;;;;;;;54.40;17.42;;;-0.20;99.90;;;;;;6246805;23;20019;-87
2022/12/11 09:44:51;;;;;;;52.10;17.13;;;0.70;99.90;;;;;;6222376;23;20321;-88
2022/12/11 09:47:42;;;;;;;64.30;19.60;;;-0.20;99.90;;;;;;6218876;23;20456;-88
2022/12/11 09:50:08;;;;;;;61.10;19.27;;;-0.30;99.90;;;;;;6222582;23;20012;-88
2022/12/11 09:53:15;;;;;;;57.67;18.43;;;-0.20;99.90;;;;;;6247776;23;20143;-88
2022/12/11 09:56:16;;;;;;;68.33;18.53;;;-0.90;99.90;;;;;;6219940;23;20012;-88
2022/12/11 09:59:17;;;;;;;52.07;17.77;;;0.00;99.90;;;;;;6214248;23;20028;-88
2022/12/11 10:01:53;;;;;;;49.10;17.20;;;-0.20;99.90;;;;;;6214485;23;20023;-87
2022/12/11 10:04:21;;;;;;;54.70;18.63;;;-0.20;99.90;;;;;;6213192;23;20024;-87
2022/12/11 10:07:35;;;;;;;61.60;18.10;;;0.60;99.90;;;;;;6213575;23;20020;-87
2022/12/11 10:10:16;;;;;;;55.57;19.00;;;-0.20;99.90;;;;;;6133342;23;20014;-87
2022/12/11 10:12:55;;;;;;;65.87;18.30;;;-0.20;99.90;;;;;;6213649;23;20013;-86
2022/12/11 10:16:16;;;;;;;49.50;18.40;;;-0.20;99.90;;;;;;6225521;22;20460;-87
2022/12/11 10:22:46;;;;;;;55.97;18.00;;;0.70;99.90;;;;;;6218423;23;20020;-86
2022/12/11 10:25:27;;;;;;;57.13;19.07;;;-0.90;99.90;;;;;;6217127;23;20020;-86
2022/12/11 10:27:53;;;;;;;62.13;19.17;;;-0.20;99.90;;;;;;6216923;23;20383;-87
2022/12/11 10:30:23;;;;;;;56.10;18.23;;;-0.50;99.90;;;;;;6245386;23;20018;-87
2022/12/11 10:33:21;;;;;;;55.07;19.10;;;-0.10;99.90;;;;;;6244536;23;20086;-86
2022/12/11 10:35:57;;;;;;;57.70;19.83;;;-0.20;99.90;;;;;;6216936;23;20024;-87
2022/12/11 10:38:47;;;;;;;57.97;19.93;;;-0.40;99.90;;;;;;6217707;23;20069;-87
2022/12/11 10:41:23;;;;;;;58.13;19.93;;;-0.20;99.90;;;;;;6216366;23;20020;-88
2022/12/11 10:44:00;;;;;;;58.83;19.50;;;-0.30;99.90;;;;;;6219152;23;20023;-87
2022/12/11 10:46:31;;;;;;;65.53;18.63;;;1.80;99.90;;;;;;6244744;23;20019;-86
2022/12/11 10:48:59;;;;;;;63.87;19.87;;;0.10;99.90;;;;;;6246193;23;20094;-86
2022/12/11 10:51:31;;;;;;;58.87;19.00;;;-0.30;99.90;;;;;;6218896;23;20016;-86
2022/12/11 10:54:05;;;;;;;55.17;18.40;;;-0.40;99.90;;;;;;6217795;23;20023;-86
2022/12/11 10:56:33;;;;;;;56.17;19.03;;;-0.10;99.90;;;;;;6245665;23;20012;-88
2022/12/11 10:59:00;;;;;;;64.50;18.97;;;0.90;99.90;;;;;;6220391;23;20020;-86
2022/12/11 11:01:28;;;;;;;53.37;18.40;;;-0.10;99.90;;;;;;6244901;23;20023;-86
2022/12/11 11:04:05;;;;;;;61.70;18.83;;;-0.10;99.90;;;;;;6247286;23;20023;-85
2022/12/11 11:06:32;;;;;;;59.30;18.40;;;-0.10;99.90;;;;;;6217438;23;20044;-86
2022/12/11 11:09:02;;;;;;;65.37;19.30;;;0.10;99.90;;;;;;6243667;23;20031;-85
2022/12/11 11:11:27;;;;;;;55.90;17.30;;;-0.10;99.90;;;;;;6218289;23;20016;-85
2022/12/11 11:14:18;;;;;;;58.07;18.37;;;1.20;99.90;;;;;;6244434;23;20321;-86
2022/12/11 11:16:46;;;;;;;61.20;20.13;;;-0.10;99.90;;;;;;6216306;23;20102;-86
2022/12/11 11:19:24;;;;;;;50.47;17.57;;;0.50;99.90;;;;;;6249235;23;20444;-85
2022/12/11 11:22:03;;;;;;;58.13;18.60;;;0.00;99.90;;;;;;6244763;23;20054;-86
2022/12/11 11:24:44;;;;;;;60.90;19.37;;;0.00;99.90;;;;;;6230027;23;20036;-85
2022/12/11 11:27:38;;;;;;;53.83;18.20;;;0.00;99.90;;;;;;6234588;23;20016;-86
2022/12/11 11:30:16;;;;;;;56.30;18.80;;;0.00;99.90;;;;;;6217853;23;20340;-85
2022/12/11 11:32:42;;;;;;;52.03;17.80;;;0.00;99.90;;;;;;6245315;23;20095;-86
2022/12/11 11:35:17;;;;;;;53.47;17.57;;;-0.20;99.90;;;;;;6217113;23;20020;-86
2022/12/11 11:38:23;;;;;;;53.50;18.23;;;0.00;99.90;;;;;;6218058;23;20012;-85
2022/12/11 11:41:41;;;;;;;54.30;18.03;;;-0.10;99.90;;;;;;6244565;23;20467;-85
2022/12/11 11:44:05;;;;;;;48.10;17.47;;;0.00;99.90;;;;;;6212661;23;20082;-84
2022/12/11 11:46:37;;;;;;;54.13;17.23;;;0.00;99.90;;;;;;6217667;23;20440;-85
2022/12/11 11:49:22;;;;;;;;;;;;;;;;;;;;;
2022/12/11 11:55:19;;;;;;;;;;;0.10;99.90;;;;;;6245779;22;20471;-87
2022/12/11 12:00:27;;;;;;;56.23;18.30;;;0.10;99.90;;;;;;6243220;22;20403;-86
2022/12/11 12:03:20;;;;;;;51.93;16.63;;;2.20;99.90;;;;;;6243989;23;20016;-86
2022/12/11 12:06:03;;;;;;;47.90;17.00;;;0.00;99.90;;;;;;6218678;23;20020;-84
2022/12/11 12:08:45;;;;;;;56.58;18.13;;;0.10;99.90;;;;;;6213627;23;20024;-89
2022/12/11 12:18:14;;;;;;;50.67;17.47;;;0.10;99.90;;;;;;6230860;22;20085;-88
2022/12/11 12:36:56;;;;;;;;;;;;;;;;;;;;;
2022/12/11 12:47:21;;;;;;;53.17;18.53;;;1.00;99.90;;;;;;6072723;23;20101;-87
2022/12/11 12:49:58;;;;;;;59.50;19.37;;;-0.60;99.90;;;;;;6074069;23;20019;-86
2022/12/11 12:52:31;;;;;;;65.70;20.40;;;0.00;99.90;;;;;;6100097;23;20047;-86
2022/12/11 12:55:23;;;;;;;57.83;19.27;;;0.10;99.90;;;;;;6078050;23;20046;-86
2022/12/11 12:58:06;;;;;;;55.20;18.67;;;0.90;99.90;;;;;;6103516;23;20322;-86
2022/12/11 13:01:04;;;;;;;54.97;17.57;;;0.20;99.90;;;;;;6190672;23;20016;-85
2022/12/11 13:04:06;;;;;;;53.40;18.47;;;0.20;99.90;;;;;;6189312;23;20021;-86
2022/12/11 13:06:44;;;;;;;55.00;18.90;;;-1.00;99.90;;;;;;6189098;23;20016;-86
2022/12/11 13:09:25;;;;;;;51.80;17.30;;;-0.10;99.90;;;;;;6189627;23;20021;-86
2022/12/11 13:11:58;;;;;;;52.77;18.40;;;0.20;99.90;;;;;;6190441;23;20013;-86
2022/12/11 13:14:32;;;;;;;51.40;17.88;;;-0.10;99.90;;;;;;6189874;23;20020;-86
2022/12/11 13:17:27;;;;;;;60.25;19.05;;;1.40;99.90;;;;;;6217137;23;20051;-86
2022/12/11 13:20:18;;;;;;;53.10;18.00;;;0.00;99.90;;;;;;6189446;23;20024;-86
2022/12/11 13:23:26;;;;;;;58.70;17.97;;;0.30;99.90;;;;;;6189777;23;20019;-86
2022/12/11 13:26:02;;;;;;;59.60;19.00;;;0.20;99.90;;;;;;6190963;23;20025;-86
2022/12/11 13:28:37;;;;;;;59.07;18.70;;;1.20;99.90;;;;;;6215091;23;20858;-85
2022/12/11 13:31:15;;;;;;;56.70;18.37;;;0.10;99.90;;;;;;6207785;23;20448;-85
2022/12/11 13:34:21;;;;;;;57.67;19.30;;;0.60;99.90;;;;;;6245355;23;20020;-85
2022/12/11 13:36:54;;;;;;;57.40;19.10;;;0.20;99.90;;;;;;6147816;23;20016;-86
2022/12/11 13:39:38;;;;;;;50.10;18.10;;;-0.50;99.90;;;;;;6244496;23;20452;-86
2022/12/11 13:42:41;;;;;;;51.75;18.13;;;1.80;99.90;;;;;;6244379;23;20058;-86
2022/12/11 13:45:22;;;;;;;55.80;17.50;;;0.00;99.90;;;;;;6243940;23;20012;-86
2022/12/11 13:48:36;;;;;;;58.93;19.03;;;1.30;99.90;;;;;;6244745;23;20016;-86
2022/12/11 13:51:21;;;;;;;48.83;18.20;;;1.20;99.90;;;;;;6245231;23;20373;-86
2022/12/11 13:54:33;;;;;;;57.17;18.07;;;0.70;99.90;;;;;;6245722;22;20023;-86
2022/12/11 13:57:20;;;;;;;55.73;17.73;;;0.10;99.90;;;;;;6245822;22;20051;-86
2022/12/11 14:00:30;;;;;;;58.77;19.90;;;1.70;99.90;;;;;;6246990;22;20026;-86
2022/12/11 14:03:08;;;;;;;51.20;18.50;;;0.20;99.90;;;;;;6240441;22;20012;-86
2022/12/11 14:05:46;;;;;;;57.17;18.53;;;0.20;99.90;;;;;;6246725;22;20024;-86
2022/12/11 14:08:22;;;;;;;56.43;18.80;;;0.20;99.90;;;;;;6245408;23;20012;-86
2022/12/11 14:11:26;;;;;;;53.38;17.90;;;1.10;99.90;;;;;;6245953;22;20020;-86
2022/12/11 14:13:54;;;;;;;56.80;18.90;;;-0.30;99.90;;;;;;6244806;23;20062;-86
2022/12/11 14:16:23;;;;;;;55.67;19.27;;;0.10;99.90;;;;;;6249068;22;20016;-85
2022/12/11 14:18:50;;;;;;;50.30;17.87;;;0.40;99.90;;;;;;6255518;22;20047;-86
2022/12/11 14:21:20;;;;;;;52.67;19.17;;;0.60;99.90;;;;;;6272800;22;20000;-85
2022/12/11 14:30:38;;;;;;;58.50;19.52;;;1.10;99.90;;;;;;6214715;23;20047;-87
2022/12/11 14:33:10;;;;;;;51.87;18.73;;;0.00;99.90;;;;;;6215268;23;20028;-87
2022/12/11 14:35:40;;;;;;;59.33;18.73;;;0.70;99.90;;;;;;6216300;23;20017;-86
2022/12/11 14:38:18;;;;;;;58.20;19.70;;;0.20;99.90;;;;;;6216576;23;20092;-87
2022/12/11 14:40:48;;;;;;;53.10;17.73;;;-0.10;99.90;;;;;;6189081;23;20099;-86
2022/12/11 14:43:37;;;;;;;59.00;17.70;;;0.40;99.90;;;;;;6189074;23;20020;-86
2022/12/11 14:46:17;;;;;;;53.63;18.17;;;0.10;99.90;;;;;;6188710;23;20024;-86
2022/12/11 14:48:48;;;;;;;53.70;18.10;;;0.10;99.90;;;;;;6215406;23;20016;-86
2022/12/11 14:51:17;;;;;;;52.20;18.80;;;0.00;99.90;;;;;;6213565;23;20135;-85
2022/12/11 14:53:47;;;;;;;55.43;19.10;;;0.10;99.90;;;;;;6188270;23;20056;-86
2022/12/11 14:56:18;;;;;;;56.90;17.80;;;0.10;99.90;;;;;;6189140;23;20508;-87
2022/12/11 14:58:53;;;;;;;62.47;18.77;;;0.10;99.90;;;;;;6188018;23;20349;-87
2022/12/11 15:01:28;;;;;;;55.10;18.53;;;0.10;99.90;;;;;;6212762;23;20032;-84
2022/12/11 15:04:14;;;;;;;57.87;18.60;;;-0.10;99.90;;;;;;6186917;23;20051;-85
2022/12/11 15:06:52;;;;;;;49.53;18.00;;;0.10;99.90;;;;;;6206768;23;20396;-85
2022/12/11 15:09:32;;;;;;;64.87;19.47;;;-0.20;99.90;;;;;;6212144;23;20531;-85
2022/12/11 15:12:18;;;;;;;54.93;18.43;;;-0.30;99.90;;;;;;6213274;23;20044;-85
2022/12/11 15:15:03;;;;;;;53.10;17.97;;;-0.20;99.90;;;;;;6187905;23;20020;-85
2022/12/11 15:17:45;;;;;;;56.33;18.87;;;-0.20;99.90;;;;;;6212142;23;20063;-85
2022/12/11 15:20:44;;;;;;;51.13;18.43;;;0.30;99.90;;;;;;6213969;23;20023;-85
2022/12/11 15:23:13;;;;;;;50.17;17.97;;;1.60;99.90;;;;;;6186400;23;20023;-85
2022/12/11 15:25:39;;;;;;;51.50;18.00;;;-0.20;99.90;;;;;;6214429;23;20092;-85
2022/12/11 15:28:04;;;;;;;57.27;19.13;;;0.20;99.90;;;;;;6196363;23;20380;-86
2022/12/11 15:31:19;;;;;;;56.10;18.97;;;1.10;99.90;;;;;;6244770;22;20012;-86
2022/12/11 15:34:38;;;;;;;55.20;17.97;;;0.30;99.90;;;;;;6241133;23;20024;-87
2022/12/11 15:37:45;;;;;;;46.00;16.40;;;1.20;99.90;;;;;;6243094;23;20020;-86
2022/12/11 15:40:11;;;;;;;54.33;18.10;;;0.10;99.90;;;;;;6243179;23;20016;-86
2022/12/11 15:42:40;;;;;;;54.77;18.77;;;0.10;99.90;;;;;;6272365;22;20020;-85
2022/12/11 15:45:18;;;;;;;52.37;18.07;;;-0.50;99.90;;;;;;6248572;22;20016;-85
2022/12/11 15:47:53;;;;;;;46.87;17.60;;;2.30;99.90;;;;;;6244231;22;20379;-85
2022/12/11 15:50:34;;;;;;;43.90;15.97;;;0.30;99.90;;;;;;6247159;23;20044;-85
2022/12/11 15:53:08;;;;;;;42.87;16.20;;;0.50;99.90;;;;;;6243482;23;20092;-85
2022/12/11 16:19:07;;;;;;;44.43;16.33;;;0.00;99.90;;;;;;6241212;22;20017;-86
2022/12/11 16:27:57;;;;;;;39.13;14.77;;;-0.10;99.90;;;;;;6249198;22;20026;-88
2022/12/11 16:30:30;;;;;;;37.37;14.67;;;-0.20;99.90;;;;;;6241749;23;20024;-86
2022/12/11 16:33:19;;;;;;;38.50;15.10;;;0.00;99.90;;;;;;6246592;23;20016;-88
2022/12/11 16:35:53;;;;;;;35.73;14.17;;;0.70;99.90;;;;;;6246277;23;20083;-87
2022/12/11 16:38:22;;;;;;;37.70;14.40;;;0.20;99.90;;;;;;6247306;23;20016;-89
2022/12/11 16:41:02;;;;;;;32.07;13.47;;;-0.20;99.90;;;;;;6245504;23;20024;-88
2022/12/11 16:44:36;;;;;;;37.40;15.10;;;0.10;99.90;;;;;;6122130;23;20370;-88
2022/12/11 16:47:32;;;;;;;37.13;14.80;;;0.50;99.90;;;;;;6220881;22;20086;-86
2022/12/11 16:50:14;;;;;;;38.17;15.10;;;0.10;99.90;;;;;;6240069;22;20031;-88
2022/12/11 16:53:33;;;;;;;37.07;14.97;;;-0.30;99.90;;;;;;6244444;22;20040;-88
2022/12/11 16:58:55;;;;;;;39.37;15.77;;;-0.10;99.90;;;;;;6255083;22;20340;-89
2022/12/11 17:01:24;;;;;;;41.30;15.63;;;-0.10;99.90;;;;;;6246197;23;20031;-86
2022/12/11 17:03:53;;;;;;;36.30;14.20;;;-0.20;99.90;;;;;;6219726;23;20020;-86
2022/12/11 17:06:19;;;;;;;41.37;16.33;;;0.10;99.90;;;;;;6212040;23;20020;-85
2022/12/11 17:08:45;;;;;;;38.53;15.33;;;-0.40;99.90;;;;;;6220173;23;20091;-84
2022/12/11 17:11:14;;;;;;;38.63;15.37;;;-0.10;99.90;;;;;;6224415;23;20066;-84
2022/12/11 17:13:43;;;;;;;38.90;15.90;;;-0.10;99.90;;;;;;6248032;23;20012;-84
2022/12/11 17:16:21;;;;;;;38.53;16.67;;;0.20;99.90;;;;;;6246149;23;20044;-84
2022/12/11 17:18:59;;;;;;;43.40;16.10;;;1.70;99.90;;;;;;6219342;23;20020;-84